DLH9CK EDDM-EBBR
Flight info
| Callsign | DLH9CK |
|---|---|
| Flight time | N/A |
| Altitude | 32000 |
| Route | GIVMI6Q GIVMI Y101 INBED DCT REKDI DCT OSBIT DCT TEKTU DCT TESGA DCT UMUPU T880 BATTY |
| Aircraft | A359/H-SDE2E3GHIJ1J3J4J5LM1ORWXY/LB1D1 |
Departure
| Time | 2026-04-30 15:03 |
|---|---|
| Airport | Munich Airport (EDDM) |
Arrival
| Time | N/A |
|---|---|
| Airport | Brussels Airport (EBBR) |
| Time | Latitude | Longitude | Altitude | Speed | Heading |
|---|---|---|---|---|---|
| 2026-04-30 14:24 | 48.35411 | 11.79319 | 1492 ft | 0 kts | 270° |
| 2026-04-30 14:54 | 48.35410 | 11.79364 | 1485 ft | 4 kts | 270° |
| 2026-04-30 14:54 | 48.35406 | 11.79435 | 1482 ft | 4 kts | 301° |
| 2026-04-30 14:55 | 48.35364 | 11.79469 | 1476 ft | 4 kts | 353° |
| 2026-04-30 14:55 | 48.35345 | 11.79473 | 1476 ft | 0 kts | 353° |
| 2026-04-30 14:57 | 48.35374 | 11.79468 | 1476 ft | 9 kts | 353° |
| 2026-04-30 14:58 | 48.35627 | 11.79424 | 1485 ft | 26 kts | 353° |
| 2026-04-30 14:58 | 48.35815 | 11.79391 | 1486 ft | 28 kts | 353° |
| 2026-04-30 14:58 | 48.36071 | 11.79318 | 1486 ft | 17 kts | 346° |
| 2026-04-30 14:59 | 48.36088 | 11.79281 | 1482 ft | 6 kts | 277° |
| 2026-04-30 15:00 | 48.36039 | 11.78618 | 1492 ft | 30 kts | 263° |
| 2026-04-30 15:00 | 48.35988 | 11.77953 | 1481 ft | 33 kts | 264° |
| 2026-04-30 15:01 | 48.36048 | 11.77661 | 1480 ft | 17 kts | 354° |
| 2026-04-30 15:01 | 48.36123 | 11.77675 | 1478 ft | 16 kts | 27° |
| 2026-04-30 15:01 | 48.36342 | 11.78103 | 1476 ft | 35 kts | 57° |
| 2026-04-30 15:02 | 48.36410 | 11.78511 | 1477 ft | 63 kts | 83° |
| 2026-04-30 15:02 | 48.36490 | 11.79554 | 1492 ft | 136 kts | 84° |
| 2026-04-30 15:03 | 48.37081 | 11.84507 | 3430 ft | 190 kts | 62° |
| 2026-04-30 15:03 | 48.39740 | 11.86222 | 4506 ft | 242 kts | 6° |
| 2026-04-30 15:04 | 48.43255 | 11.85154 | 5681 ft | 292 kts | 328° |
| 2026-04-30 15:04 | 48.47343 | 11.77266 | 7960 ft | 333 kts | 310° |
| 2026-04-30 15:05 | 48.51779 | 11.69063 | 11115 ft | 340 kts | 313° |
| 2026-04-30 15:06 | 48.54861 | 11.63605 | 13097 ft | 347 kts | 314° |
| 2026-04-30 15:06 | 48.58042 | 11.57982 | 14794 ft | 358 kts | 314° |
| 2026-04-30 15:07 | 48.61356 | 11.52105 | 16170 ft | 372 kts | 314° |
| 2026-04-30 15:07 | 48.64737 | 11.46086 | 17835 ft | 379 kts | 315° |
| 2026-04-30 15:08 | 48.68185 | 11.39941 | 19404 ft | 387 kts | 315° |
| 2026-04-30 15:08 | 48.74318 | 11.31921 | 21531 ft | 392 kts | 331° |
| 2026-04-30 15:09 | 48.78923 | 11.27385 | 23073 ft | 397 kts | 333° |
| 2026-04-30 15:09 | 48.83652 | 11.22919 | 24438 ft | 402 kts | 338° |
| 2026-04-30 15:10 | 48.88827 | 11.19717 | 25613 ft | 405 kts | 346° |
| 2026-04-30 15:11 | 48.99666 | 11.14209 | 27999 ft | 417 kts | 348° |
| 2026-04-30 15:11 | 49.05226 | 11.11409 | 29160 ft | 424 kts | 348° |
| 2026-04-30 15:12 | 49.13755 | 11.07070 | 30568 ft | 438 kts | 348° |
| 2026-04-30 15:13 | 49.19575 | 11.04094 | 31508 ft | 443 kts | 347° |
| 2026-04-30 15:14 | 49.31329 | 10.98028 | 33198 ft | 452 kts | 347° |
| 2026-04-30 15:14 | 49.39820 | 10.91204 | 34314 ft | 476 kts | 326° |
| 2026-04-30 15:16 | 49.50723 | 10.71634 | 36349 ft | 480 kts | 314° |
| 2026-04-30 15:17 | 49.59024 | 10.55660 | 37922 ft | 474 kts | 314° |
| 2026-04-30 15:18 | 49.68901 | 10.35455 | 39370 ft | 479 kts | 303° |
| 2026-04-30 15:19 | 49.73310 | 10.21557 | 40068 ft | 480 kts | 300° |